Time;durP1;ratioP1;P1;durP2;ratioP2;P2;SDS_P1;SDS_P2;PMS_P1;PMS_P2;Temp;Humidity;BMP_temperature;BMP_pressure;BME280_temperature;BME280_humidity;BME280_pressure;Samples;Min_cycle;Max_cycle;Signal;HPM_P1;HPM_P2
2022/10/18 00:01:54;;;;;;;27.40;14.20;;;13.20;99.90;;;;;;4949856;28;20106;-59
2022/10/18 00:04:20;;;;;;;22.40;12.57;;;13.20;99.90;;;;;;4952954;28;20058;-59
2022/10/18 00:06:46;;;;;;;25.40;13.85;;;13.10;99.90;;;;;;4953922;28;20485;-59
2022/10/18 00:09:12;;;;;;;29.23;13.63;;;13.10;99.90;;;;;;4953453;28;20059;-59
2022/10/18 00:11:38;;;;;;;24.60;13.70;;;13.10;99.90;;;;;;4953443;28;20047;-59
2022/10/18 00:14:04;;;;;;;31.70;15.68;;;13.10;99.90;;;;;;4952016;28;20051;-59
2022/10/18 00:16:30;;;;;;;23.95;12.98;;;13.10;99.90;;;;;;4954028;28;20394;-59
2022/10/18 00:18:55;;;;;;;18.35;11.43;;;13.10;99.90;;;;;;4950914;28;20089;-59
2022/10/18 00:21:23;;;;;;;30.40;14.18;;;13.00;99.90;;;;;;4954784;28;20047;-59
2022/10/18 00:23:51;;;;;;;22.92;12.80;;;13.00;99.90;;;;;;4952898;28;20054;-59
2022/10/18 00:26:20;;;;;;;24.25;13.95;;;13.00;99.90;;;;;;4952531;28;20043;-58
2022/10/18 00:28:49;;;;;;;25.70;12.75;;;13.00;99.90;;;;;;4947385;28;20458;-60
2022/10/18 00:31:15;;;;;;;28.80;14.25;;;13.00;99.90;;;;;;4951893;28;20057;-60
2022/10/18 00:33:42;;;;;;;21.88;12.60;;;12.90;99.90;;;;;;4953033;28;20042;-58
2022/10/18 00:36:09;;;;;;;27.48;14.05;;;12.90;99.90;;;;;;4951526;28;20050;-59
2022/10/18 00:38:35;;;;;;;29.92;14.52;;;12.90;99.90;;;;;;4953879;28;20055;-59
2022/10/18 00:41:02;;;;;;;31.25;15.90;;;12.90;99.90;;;;;;4954536;28;20114;-60
2022/10/18 00:43:28;;;;;;;32.47;16.02;;;12.80;99.90;;;;;;4950767;28;20109;-58
2022/10/18 00:45:53;;;;;;;36.05;17.63;;;12.80;99.90;;;;;;4950719;28;20357;-59
2022/10/18 00:48:20;;;;;;;45.22;20.08;;;12.80;99.90;;;;;;4952052;28;20178;-58
2022/10/18 00:50:47;;;;;;;38.58;19.15;;;12.80;99.90;;;;;;4952936;28;20038;-59
2022/10/18 00:53:17;;;;;;;35.80;20.15;;;12.80;99.90;;;;;;4968729;28;20133;-59
2022/10/18 00:55:43;;;;;;;36.67;19.58;;;12.80;99.90;;;;;;4956661;28;20039;-60
2022/10/18 00:58:12;;;;;;;36.25;19.30;;;12.80;99.90;;;;;;4954774;28;20042;-58
2022/10/18 01:00:39;;;;;;;45.42;20.45;;;12.80;99.90;;;;;;4954941;28;20055;-59
2022/10/18 01:03:07;;;;;;;35.67;20.15;;;12.80;99.90;;;;;;4954260;28;20520;-59
2022/10/18 01:05:36;;;;;;;37.47;19.13;;;12.80;99.90;;;;;;4956169;28;20047;-59
2022/10/18 01:08:20;;;;;;;39.20;19.63;;;12.80;99.90;;;;;;4957251;28;20041;-60
2022/10/18 01:11:24;;;;;;;44.40;21.75;;;12.80;99.90;;;;;;4957765;28;20077;-58
2022/10/18 01:14:17;;;;;;;37.80;20.27;;;12.80;99.90;;;;;;4969683;28;20047;-59
2022/10/18 01:17:02;;;;;;;39.33;18.58;;;12.70;99.90;;;;;;4957645;28;20035;-58
2022/10/18 01:20:00;;;;;;;33.67;18.60;;;12.80;99.90;;;;;;4952910;28;20113;-59
2022/10/18 01:23:18;;;;;;;35.40;19.67;;;12.70;99.90;;;;;;4940270;28;20129;-58
2022/10/18 01:25:59;;;;;;;35.38;19.08;;;12.70;99.90;;;;;;4944272;28;20617;-59
2022/10/18 01:28:52;;;;;;;29.92;19.67;;;12.70;99.90;;;;;;4959679;28;20438;-59
2022/10/18 01:31:27;;;;;;;50.13;19.95;;;12.70;99.90;;;;;;4954212;28;20113;-59
2022/10/18 01:33:57;;;;;;;184.98;23.08;;;12.60;99.90;;;;;;4955273;28;20047;-58
2022/10/18 01:36:45;;;;;;;37.90;16.58;;;12.60;99.90;;;;;;4956207;28;20134;-59
2022/10/18 01:39:15;;;;;;;81.80;17.10;;;12.60;99.90;;;;;;4952411;28;20047;-59
2022/10/18 01:41:43;;;;;;;204.57;21.92;;;12.60;99.90;;;;;;4951890;28;20047;-59
2022/10/18 01:44:17;;;;;;;144.25;19.80;;;12.50;99.90;;;;;;4957930;28;20296;-59
2022/10/18 01:46:45;;;;;;;32.47;15.82;;;12.50;99.90;;;;;;4954329;28;20039;-59
2022/10/18 01:49:11;;;;;;;27.15;14.75;;;12.50;99.90;;;;;;4962462;28;20055;-58
2022/10/18 01:51:36;;;;;;;61.65;16.33;;;12.50;99.90;;;;;;4956433;28;20054;-59
2022/10/18 01:54:03;;;;;;;103.72;20.20;;;12.50;99.90;;;;;;4954690;28;20034;-59
2022/10/18 01:56:40;;;;;;;90.18;17.08;;;12.50;99.90;;;;;;4956057;28;20136;-59
2022/10/18 01:59:25;;;;;;;141.13;20.60;;;12.50;99.90;;;;;;4952596;28;20055;-59
2022/10/18 02:02:22;;;;;;;415.45;28.58;;;12.50;99.90;;;;;;4958058;28;20493;-59
2022/10/18 02:04:57;;;;;;;118.30;24.88;;;12.60;99.90;;;;;;4953447;28;20301;-58
2022/10/18 02:07:38;;;;;;;175.48;26.88;;;12.60;99.90;;;;;;4949323;28;20051;-59
2022/10/18 02:10:25;;;;;;;319.23;27.80;;;12.60;99.90;;;;;;4954174;28;20051;-59
2022/10/18 02:12:52;;;;;;;379.80;29.15;;;12.70;99.90;;;;;;4951132;28;20055;-59
2022/10/18 02:15:23;;;;;;;171.18;23.00;;;12.70;99.90;;;;;;4955632;28;20045;-58
2022/10/18 02:17:51;;;;;;;268.73;26.27;;;12.70;99.90;;;;;;4939795;28;20379;-59
2022/10/18 02:20:20;;;;;;;186.15;25.23;;;12.70;99.90;;;;;;4952612;28;20047;-58
2022/10/18 02:22:49;;;;;;;178.77;20.88;;;12.70;99.90;;;;;;4955041;28;20105;-59
2022/10/18 02:25:26;;;;;;;161.80;23.15;;;12.80;99.90;;;;;;4957382;28;20093;-59
2022/10/18 02:27:52;;;;;;;127.93;20.92;;;12.80;99.90;;;;;;4953399;28;20053;-60
2022/10/18 02:30:27;;;;;;;121.65;23.30;;;12.80;99.90;;;;;;4953242;28;20101;-59
2022/10/18 02:33:02;;;;;;;104.63;23.00;;;12.80;99.90;;;;;;4966125;28;20548;-59
2022/10/18 02:35:34;;;;;;;97.72;20.83;;;12.80;99.90;;;;;;4955666;28;20043;-59
2022/10/18 02:38:02;;;;;;;137.07;23.17;;;12.80;99.90;;;;;;4953047;28;20368;-58
2022/10/18 02:40:29;;;;;;;101.85;21.73;;;12.80;99.90;;;;;;4952655;28;20054;-59
2022/10/18 02:42:56;;;;;;;62.33;19.63;;;12.80;99.90;;;;;;4954021;28;20189;-58
2022/10/18 02:45:23;;;;;;;55.03;19.23;;;12.80;99.90;;;;;;4951013;28;20477;-59
2022/10/18 02:47:50;;;;;;;48.58;19.60;;;12.80;99.90;;;;;;4951692;28;20035;-58
2022/10/18 02:50:16;;;;;;;70.95;20.67;;;12.80;99.90;;;;;;4951664;28;20043;-58
2022/10/18 02:52:42;;;;;;;52.75;18.58;;;12.80;99.90;;;;;;4952745;28;20047;-59
2022/10/18 02:55:09;;;;;;;46.63;19.08;;;12.80;99.90;;;;;;4954754;28;20039;-59
2022/10/18 02:57:35;;;;;;;77.00;19.25;;;12.80;99.90;;;;;;4966271;28;20079;-59
2022/10/18 03:00:01;;;;;;;70.43;18.67;;;12.80;99.90;;;;;;4952695;28;20683;-60
2022/10/18 03:02:27;;;;;;;74.43;19.20;;;12.80;99.90;;;;;;4951635;28;20149;-59
2022/10/18 03:04:53;;;;;;;71.57;19.60;;;12.80;99.90;;;;;;4953534;28;20438;-58
2022/10/18 03:07:18;;;;;;;144.02;20.77;;;12.70;99.90;;;;;;4953562;28;20055;-59
2022/10/18 03:09:44;;;;;;;69.00;18.23;;;12.80;99.90;;;;;;4948527;28;20054;-59
2022/10/18 03:12:10;;;;;;;69.95;17.05;;;12.70;99.90;;;;;;4951612;28;20114;-59
2022/10/18 03:14:36;;;;;;;45.67;17.45;;;12.70;99.90;;;;;;4949719;28;20509;-58
2022/10/18 03:17:02;;;;;;;40.30;17.95;;;12.80;99.90;;;;;;4951780;28;20130;-60
2022/10/18 03:19:27;;;;;;;89.28;21.15;;;12.70;99.90;;;;;;4949527;28;20087;-59
2022/10/18 03:21:53;;;;;;;71.78;20.80;;;12.70;99.90;;;;;;4954108;28;20051;-58
2022/10/18 03:24:19;;;;;;;38.60;18.95;;;12.70;99.90;;;;;;4950671;28;20445;-59
2022/10/18 03:26:45;;;;;;;75.30;20.00;;;12.70;99.90;;;;;;4951079;28;20043;-58
2022/10/18 03:29:11;;;;;;;52.67;18.92;;;12.70;99.90;;;;;;4949020;28;20474;-58
2022/10/18 03:31:37;;;;;;;73.95;19.33;;;12.70;99.90;;;;;;4948200;28;20046;-59
2022/10/18 03:34:02;;;;;;;56.20;18.67;;;12.70;99.90;;;;;;4949014;28;20574;-59
2022/10/18 03:36:28;;;;;;;66.68;18.67;;;12.70;99.90;;;;;;4949637;28;20731;-59
2022/10/18 03:38:54;;;;;;;44.75;19.30;;;12.70;99.90;;;;;;4948256;28;20078;-58
2022/10/18 03:41:20;;;;;;;31.80;17.88;;;12.70;99.90;;;;;;4948610;28;20054;-59
2022/10/18 03:43:46;;;;;;;61.53;19.50;;;12.70;99.90;;;;;;4949620;28;20035;-59
2022/10/18 03:46:12;;;;;;;105.35;22.48;;;12.70;99.90;;;;;;4947058;28;20047;-58
2022/10/18 03:48:38;;;;;;;133.63;21.75;;;12.70;99.90;;;;;;4957100;28;20633;-59
2022/10/18 03:51:04;;;;;;;103.72;20.20;;;12.70;99.90;;;;;;4948806;28;20043;-59
2022/10/18 03:53:29;;;;;;;158.95;23.25;;;12.70;99.90;;;;;;4948372;28;20512;-59
2022/10/18 03:55:55;;;;;;;93.60;18.77;;;12.60;99.90;;;;;;4946263;28;20043;-60
2022/10/18 03:58:23;;;;;;;155.40;24.08;;;12.60;99.90;;;;;;4948499;28;20118;-59
2022/10/18 04:00:53;;;;;;;53.92;19.67;;;12.60;99.90;;;;;;4948809;28;20198;-59
2022/10/18 04:03:21;;;;;;;206.18;25.08;;;12.60;99.90;;;;;;4949196;28;20043;-59
2022/10/18 04:05:47;;;;;;;74.28;17.17;;;12.60;99.90;;;;;;4948378;28;20047;-59
2022/10/18 04:08:14;;;;;;;39.40;17.38;;;12.50;99.90;;;;;;4948944;28;20089;-59
2022/10/18 04:10:40;;;;;;;82.78;18.10;;;12.50;99.90;;;;;;4948700;28;20206;-58
2022/10/18 04:13:06;;;;;;;107.10;19.05;;;12.50;99.90;;;;;;4947634;28;20502;-59
2022/10/18 04:15:33;;;;;;;125.30;18.02;;;12.50;99.90;;;;;;4948187;28;20086;-59
2022/10/18 04:17:59;;;;;;;126.13;20.30;;;12.40;99.90;;;;;;4950738;28;20053;-57
2022/10/18 04:20:25;;;;;;;112.10;19.10;;;12.40;99.90;;;;;;4949063;28;20047;-59
2022/10/18 04:22:53;;;;;;;104.43;16.95;;;12.40;99.90;;;;;;4947920;28;20054;-60
2022/10/18 04:25:20;;;;;;;61.28;17.25;;;12.40;99.90;;;;;;4948587;28;20055;-58
2022/10/18 04:27:46;;;;;;;71.93;16.10;;;12.40;99.90;;;;;;4951579;28;20493;-59
2022/10/18 04:30:12;;;;;;;37.50;16.80;;;12.40;99.90;;;;;;4954310;28;20047;-60
2022/10/18 04:32:38;;;;;;;40.03;15.23;;;12.40;99.90;;;;;;4953166;28;20051;-59
2022/10/18 04:35:04;;;;;;;69.25;16.50;;;12.40;99.90;;;;;;4952560;28;20114;-59
2022/10/18 04:37:31;;;;;;;51.55;15.57;;;12.40;99.90;;;;;;4954218;28;20509;-59
2022/10/18 04:39:57;;;;;;;43.55;15.05;;;12.40;99.90;;;;;;4952599;28;20437;-59
2022/10/18 04:42:23;;;;;;;39.17;14.05;;;12.30;99.90;;;;;;4953488;28;20478;-59
2022/10/18 04:44:50;;;;;;;81.38;16.35;;;12.40;99.90;;;;;;4951429;28;20126;-58
2022/10/18 04:47:16;;;;;;;121.40;17.48;;;12.30;99.90;;;;;;4952542;28;20105;-58
2022/10/18 04:49:42;;;;;;;70.68;14.75;;;12.30;99.90;;;;;;4951827;28;20050;-58
2022/10/18 04:52:08;;;;;;;74.05;14.13;;;12.30;99.90;;;;;;4949955;28;20394;-58
2022/10/18 04:54:34;;;;;;;37.83;13.82;;;12.30;99.90;;;;;;4952452;28;20705;-59
2022/10/18 04:57:00;;;;;;;40.55;14.25;;;12.30;99.90;;;;;;4952544;28;20055;-59
2022/10/18 04:59:26;;;;;;;26.17;13.52;;;12.30;99.90;;;;;;4951647;28;20181;-60
2022/10/18 05:01:52;;;;;;;76.60;13.75;;;12.20;99.90;;;;;;4961841;28;20091;-59
2022/10/18 05:04:17;;;;;;;41.85;12.70;;;12.20;99.90;;;;;;4952880;28;20126;-59
2022/10/18 05:06:43;;;;;;;58.88;13.60;;;12.20;99.90;;;;;;4953549;28;20049;-59
2022/10/18 05:09:09;;;;;;;57.85;12.70;;;12.20;99.90;;;;;;4953502;28;20058;-58
2022/10/18 05:11:35;;;;;;;41.67;12.38;;;12.10;99.90;;;;;;4952744;28;20505;-59
2022/10/18 05:14:01;;;;;;;45.05;12.82;;;12.10;99.90;;;;;;4953456;28;20043;-58
2022/10/18 05:16:27;;;;;;;287.20;15.63;;;12.10;99.90;;;;;;4953956;28;20409;-59
2022/10/18 05:18:53;;;;;;;78.43;13.18;;;12.10;99.90;;;;;;4960696;28;20051;-60
2022/10/18 05:21:19;;;;;;;119.88;13.05;;;12.10;99.90;;;;;;4960268;28;20385;-57
2022/10/18 05:23:45;;;;;;;51.65;11.85;;;12.00;99.90;;;;;;4951643;28;20051;-59
2022/10/18 05:26:11;;;;;;;159.25;12.73;;;12.00;99.90;;;;;;4953620;28;20046;-59
2022/10/18 05:28:37;;;;;;;53.55;11.85;;;12.00;99.90;;;;;;4951631;28;20513;-59
2022/10/18 05:31:07;;;;;;;90.13;11.77;;;11.90;99.90;;;;;;4952848;28;20051;-58
2022/10/18 05:33:33;;;;;;;78.30;11.20;;;11.90;99.90;;;;;;4953055;28;20094;-58
2022/10/18 05:35:59;;;;;;;152.15;13.48;;;11.80;99.90;;;;;;4954276;28;20040;-57
2022/10/18 05:38:25;;;;;;;223.57;14.52;;;11.80;99.90;;;;;;4952160;28;20043;-59
2022/10/18 05:40:51;;;;;;;143.23;13.35;;;11.80;99.90;;;;;;4954342;28;21007;-59
2022/10/18 05:43:17;;;;;;;154.77;13.23;;;11.70;99.90;;;;;;4953215;28;20505;-58
2022/10/18 05:45:50;;;;;;;185.32;11.75;;;11.70;99.90;;;;;;4953406;28;20042;-59
2022/10/18 05:48:16;;;;;;;66.63;9.65;;;11.60;99.90;;;;;;4952357;28;20039;-59
2022/10/18 05:50:42;;;;;;;46.40;9.80;;;11.60;99.90;;;;;;4953933;28;20042;-59
2022/10/18 05:53:08;;;;;;;34.15;8.73;;;11.60;99.90;;;;;;4951638;28;20035;-60
2022/10/18 05:55:34;;;;;;;15.65;9.15;;;11.50;99.90;;;;;;4955065;28;20054;-59
2022/10/18 05:58:00;;;;;;;23.27;11.15;;;11.50;99.90;;;;;;4953117;28;20134;-59
2022/10/18 06:00:26;;;;;;;44.55;11.07;;;11.50;99.90;;;;;;4952735;28;20059;-60
2022/10/18 06:02:52;;;;;;;42.42;10.02;;;11.50;99.90;;;;;;4952665;28;20102;-58
2022/10/18 06:05:17;;;;;;;29.98;11.30;;;11.40;99.90;;;;;;4952140;28;20105;-58
2022/10/18 06:07:43;;;;;;;22.67;10.82;;;11.40;99.90;;;;;;4952652;28;20054;-59
2022/10/18 06:10:09;;;;;;;30.00;10.27;;;11.30;99.90;;;;;;4952603;28;20051;-58
2022/10/18 06:12:35;;;;;;;28.98;11.73;;;11.30;99.90;;;;;;4952006;28;20050;-59
2022/10/18 06:15:01;;;;;;;27.65;11.32;;;11.30;99.90;;;;;;4938800;28;20130;-58
2022/10/18 06:17:26;;;;;;;19.10;11.60;;;11.30;99.90;;;;;;4951684;28;20087;-58
2022/10/18 06:19:52;;;;;;;36.03;11.73;;;11.20;99.90;;;;;;4952636;28;20088;-58
2022/10/18 06:22:18;;;;;;;30.63;10.57;;;11.30;99.90;;;;;;4959071;28;20039;-59
2022/10/18 06:24:44;;;;;;;38.60;9.43;;;11.20;99.90;;;;;;4953566;28;20125;-59
2022/10/18 06:27:09;;;;;;;62.47;11.07;;;11.20;99.90;;;;;;4951473;28;20047;-59
2022/10/18 06:29:36;;;;;;;82.30;11.32;;;11.10;99.90;;;;;;4953485;28;20600;-58
2022/10/18 06:32:04;;;;;;;19.48;10.00;;;11.10;99.90;;;;;;4953767;28;20070;-59
2022/10/18 06:34:30;;;;;;;18.75;9.55;;;11.10;99.90;;;;;;4952486;28;20058;-58
2022/10/18 06:36:55;;;;;;;42.92;10.88;;;11.10;99.90;;;;;;4953937;28;20050;-59
2022/10/18 06:39:21;;;;;;;31.73;10.05;;;11.00;99.90;;;;;;4952294;28;20043;-59
2022/10/18 06:41:47;;;;;;;37.70;10.50;;;11.00;99.90;;;;;;4954054;28;20053;-59
2022/10/18 06:44:13;;;;;;;17.23;9.00;;;11.00;99.90;;;;;;4953142;28;20523;-59
2022/10/18 06:46:40;;;;;;;23.25;8.98;;;11.00;99.90;;;;;;4952665;28;20050;-59
2022/10/18 06:49:06;;;;;;;11.20;7.97;;;11.00;99.90;;;;;;4952954;28;20046;-59
2022/10/18 06:51:32;;;;;;;21.85;8.75;;;11.00;99.90;;;;;;4952781;28;20050;-59
2022/10/18 06:53:58;;;;;;;14.68;8.50;;;10.90;99.90;;;;;;4953872;28;20616;-59
2022/10/18 06:56:24;;;;;;;31.38;8.02;;;10.90;99.90;;;;;;4952143;28;20169;-59
2022/10/18 06:58:49;;;;;;;16.05;7.45;;;10.90;99.90;;;;;;4952682;28;20051;-59
2022/10/18 07:01:16;;;;;;;20.40;8.10;;;10.90;99.90;;;;;;4952647;28;20051;-58
2022/10/18 07:03:43;;;;;;;48.53;8.20;;;10.90;99.90;;;;;;4953266;28;20106;-59
2022/10/18 07:06:12;;;;;;;15.85;6.65;;;10.90;99.90;;;;;;4951880;28;20046;-59
2022/10/18 07:08:38;;;;;;;29.63;6.95;;;10.80;99.90;;;;;;4952256;28;20392;-57
2022/10/18 07:11:06;;;;;;;51.95;7.22;;;10.80;99.90;;;;;;4953136;28;20557;-59
2022/10/18 07:13:32;;;;;;;53.58;7.32;;;10.80;99.90;;;;;;4950387;28;20109;-59
2022/10/18 07:16:14;;;;;;;12.98;6.05;;;10.80;99.90;;;;;;4936084;28;20053;-57
2022/10/18 07:18:42;;;;;;;7.45;6.38;;;10.80;99.90;;;;;;4953825;28;20161;-59
2022/10/18 07:21:11;;;;;;;21.35;6.38;;;10.70;99.90;;;;;;4953524;28;20134;-59
2022/10/18 07:23:39;;;;;;;25.80;6.53;;;10.80;99.90;;;;;;4953147;28;20433;-57
2022/10/18 07:26:17;;;;;;;10.45;6.57;;;10.80;99.90;;;;;;4952890;28;20047;-59
2022/10/18 07:28:44;;;;;;;12.50;6.97;;;10.80;99.90;;;;;;4952501;28;20406;-59
2022/10/18 07:31:11;;;;;;;10.70;6.90;;;10.80;99.90;;;;;;4951162;28;20050;-59
2022/10/18 07:33:37;;;;;;;8.13;7.05;;;10.80;99.90;;;;;;4952242;28;20039;-57
2022/10/18 07:36:08;;;;;;;14.48;7.75;;;10.80;99.90;;;;;;4952778;28;20045;-59
2022/10/18 07:38:34;;;;;;;11.68;7.32;;;10.80;99.90;;;;;;4953273;28;20047;-59
2022/10/18 07:41:02;;;;;;;13.18;7.72;;;10.80;99.90;;;;;;4953712;28;20413;-58
2022/10/18 07:43:29;;;;;;;14.65;8.35;;;10.80;99.90;;;;;;4952509;28;20043;-59
2022/10/18 07:45:59;;;;;;;13.75;8.80;;;10.90;99.90;;;;;;4952617;28;20091;-59
2022/10/18 07:48:26;;;;;;;14.20;7.78;;;10.90;99.90;;;;;;4953636;28;20039;-58
2022/10/18 07:50:52;;;;;;;13.95;7.57;;;11.00;99.90;;;;;;4953484;28;20039;-59
2022/10/18 07:53:18;;;;;;;16.13;7.40;;;11.00;99.90;;;;;;4951547;28;20051;-58
2022/10/18 07:55:43;;;;;;;14.25;7.72;;;11.00;99.90;;;;;;4954290;28;20136;-57
2022/10/18 07:58:10;;;;;;;15.70;7.75;;;11.00;99.90;;;;;;4952276;28;20619;-58
2022/10/18 08:00:36;;;;;;;15.70;7.10;;;11.20;99.90;;;;;;4951615;28;20614;-58
2022/10/18 08:03:03;;;;;;;15.32;7.30;;;11.20;99.90;;;;;;4957896;28;20118;-58
2022/10/18 08:05:29;;;;;;;21.10;7.60;;;11.30;99.90;;;;;;4960437;28;20035;-59
2022/10/18 08:07:55;;;;;;;15.07;7.30;;;11.40;99.90;;;;;;4959886;28;20106;-59
2022/10/18 08:10:22;;;;;;;15.32;6.97;;;11.50;99.90;;;;;;4960479;28;20046;-59
2022/10/18 08:12:49;;;;;;;14.07;7.00;;;11.60;99.90;;;;;;4960453;28;20113;-59
2022/10/18 08:15:15;;;;;;;16.42;7.45;;;11.70;99.90;;;;;;4960870;28;20134;-60
2022/10/18 08:17:43;;;;;;;10.77;6.53;;;11.80;99.90;;;;;;4960090;28;20069;-59
2022/10/18 08:20:09;;;;;;;13.52;6.75;;;11.90;99.90;;;;;;4960104;28;20440;-59
2022/10/18 08:22:35;;;;;;;14.85;7.07;;;12.10;99.90;;;;;;4958809;28;20054;-59
2022/10/18 08:25:01;;;;;;;14.43;6.57;;;12.20;99.90;;;;;;4960536;28;20040;-59
2022/10/18 08:27:26;;;;;;;12.75;5.63;;;12.30;99.90;;;;;;4960306;28;20589;-59
2022/10/18 08:29:52;;;;;;;14.35;6.20;;;12.40;99.90;;;;;;4959317;28;21944;-59
2022/10/18 08:32:18;;;;;;;16.35;6.45;;;12.50;99.90;;;;;;4960727;28;20046;-59
2022/10/18 08:34:44;;;;;;;16.55;5.75;;;12.60;99.90;;;;;;4959334;28;20529;-59
2022/10/18 08:37:09;;;;;;;16.15;5.60;;;12.70;99.90;;;;;;4960125;28;20066;-59
2022/10/18 08:39:35;;;;;;;14.30;5.43;;;12.90;99.90;;;;;;4961140;28;20086;-59
2022/10/18 08:42:15;;;;;;;13.90;5.25;;;13.00;99.90;;;;;;4961112;28;20043;-59
2022/10/18 08:44:49;;;;;;;13.05;4.75;;;13.10;99.90;;;;;;4961040;28;20481;-59
2022/10/18 08:47:21;;;;;;;17.55;4.90;;;13.20;99.90;;;;;;4966581;28;20051;-59
2022/10/18 08:50:11;;;;;;;14.35;4.82;;;13.40;99.90;;;;;;4960161;28;20055;-59
2022/10/18 08:53:04;;;;;;;12.77;4.50;;;13.40;99.90;;;;;;4959140;28;20043;-58
2022/10/18 08:56:13;;;;;;;10.75;4.20;;;13.60;99.90;;;;;;4959576;28;20110;-58
2022/10/18 08:58:43;;;;;;;13.52;4.07;;;13.70;99.90;;;;;;4907694;29;20135;-59
2022/10/18 09:01:11;;;;;;;15.80;5.30;;;13.80;99.90;;;;;;4908460;29;20082;-59
2022/10/18 09:03:50;;;;;;;10.98;4.25;;;13.90;99.90;;;;;;4936162;28;20083;-59
2022/10/18 09:06:30;;;;;;;14.00;4.45;;;13.90;99.90;;;;;;4961278;28;20081;-59
2022/10/18 09:08:59;;;;;;;13.23;3.90;;;14.10;99.90;;;;;;4960855;28;20054;-59
2022/10/18 09:11:43;;;;;;;13.25;4.22;;;14.20;99.90;;;;;;4960775;28;20075;-59
2022/10/18 09:14:32;;;;;;;13.73;4.20;;;14.30;99.90;;;;;;4957884;28;20114;-59
2022/10/18 09:17:02;;;;;;;15.80;3.85;;;14.40;99.90;;;;;;4922371;28;20138;-59
2022/10/18 09:19:55;;;;;;;17.70;3.88;;;14.50;99.90;;;;;;4958284;28;20385;-59
2022/10/18 09:22:28;;;;;;;;;;;14.70;99.90;;;;;;4957747;28;20038;-59
2022/10/18 09:25:08;;;;;;;10.88;3.60;;;14.80;99.90;;;;;;4963016;28;20382;-59
2022/10/18 09:28:02;;;;;;;21.65;4.22;;;14.90;99.90;;;;;;4957985;28;20083;-59
2022/10/18 09:31:03;;;;;;;13.98;3.92;;;15.00;99.90;;;;;;4952956;28;20121;-59
2022/10/18 09:33:49;;;;;;;12.38;3.67;;;15.20;99.90;;;;;;4954477;28;20066;-59
2022/10/18 09:36:20;;;;;;;16.15;3.42;;;15.30;99.90;;;;;;4957277;28;20153;-59
2022/10/18 09:38:57;;;;;;;16.33;3.17;;;15.40;99.90;;;;;;4956987;28;20089;-59
2022/10/18 09:41:31;;;;;;;19.80;3.25;;;15.50;99.90;;;;;;4957426;28;20043;-59
2022/10/18 09:44:09;;;;;;;16.17;3.22;;;15.60;99.90;;;;;;4955588;28;20409;-59
2022/10/18 09:46:49;;;;;;;17.67;2.58;;;15.70;99.90;;;;;;4957074;28;20051;-58
2022/10/18 09:49:44;;;;;;;13.00;2.63;;;15.70;99.90;;;;;;4957877;28;20045;-60
2022/10/18 09:52:19;;;;;;;15.88;2.78;;;15.80;99.90;;;;;;4956592;28;20131;-59
2022/10/18 09:55:02;;;;;;;14.07;2.67;;;16.00;99.90;;;;;;4959638;28;20490;-59
2022/10/18 09:57:43;;;;;;;10.38;2.40;;;16.00;99.90;;;;;;4958289;28;20061;-59
2022/10/18 10:00:21;;;;;;;15.00;2.55;;;16.10;99.90;;;;;;4957216;28;20082;-60
2022/10/18 10:02:47;;;;;;;12.30;2.50;;;16.20;99.90;;;;;;4958867;28;20043;-60
2022/10/18 10:05:13;;;;;;;18.17;3.22;;;16.30;99.90;;;;;;4957978;28;20117;-60
2022/10/18 10:07:46;;;;;;;14.07;2.47;;;16.30;99.90;;;;;;4957913;28;20420;-59
2022/10/18 10:10:24;;;;;;;15.27;2.58;;;16.30;99.90;;;;;;4957942;28;20046;-59
2022/10/18 10:13:04;;;;;;;13.32;2.15;;;16.30;99.90;;;;;;4958902;28;20509;-59
2022/10/18 10:15:30;;;;;;;12.30;2.20;;;16.50;99.90;;;;;;4956359;28;20062;-60
2022/10/18 10:18:30;;;;;;;13.15;2.95;;;16.60;99.90;;;;;;4956742;28;20050;-60
2022/10/18 10:21:21;;;;;;;14.35;2.65;;;16.70;99.90;;;;;;4929465;28;20062;-59
2022/10/18 10:23:51;;;;;;;13.40;2.35;;;16.70;99.90;;;;;;4954309;28;20058;-59
2022/10/18 10:26:33;;;;;;;13.32;2.30;;;16.70;99.90;;;;;;4957186;28;20074;-59
2022/10/18 10:28:59;;;;;;;12.60;2.33;;;16.60;99.90;;;;;;4957615;28;20538;-59
2022/10/18 10:31:33;;;;;;;16.80;2.92;;;16.60;99.90;;;;;;4956357;28;20125;-59
2022/10/18 10:33:59;;;;;;;14.60;2.35;;;16.60;99.90;;;;;;4957226;28;20043;-60
2022/10/18 10:36:25;;;;;;;19.17;2.38;;;16.70;99.90;;;;;;4958731;28;20051;-59
2022/10/18 10:39:02;;;;;;;13.35;2.45;;;16.70;99.90;;;;;;4957498;28;20412;-59
2022/10/18 10:41:28;;;;;;;10.27;2.17;;;16.80;99.90;;;;;;4957827;28;20049;-59
2022/10/18 10:43:55;;;;;;;12.10;2.38;;;16.90;99.90;;;;;;4957552;28;20493;-59
2022/10/18 10:46:22;;;;;;;12.43;2.35;;;16.90;99.90;;;;;;4957295;28;20656;-60
2022/10/18 10:48:57;;;;;;;14.30;2.40;;;16.70;99.90;;;;;;4956916;28;20054;-58
2022/10/18 10:51:37;;;;;;;15.55;2.92;;;16.60;99.90;;;;;;4957281;28;20035;-60
2022/10/18 10:54:07;;;;;;;15.85;2.38;;;16.60;99.90;;;;;;4958061;28;20078;-59
2022/10/18 10:56:36;;;;;;;17.23;2.20;;;16.80;99.90;;;;;;4957771;28;20050;-59
2022/10/18 10:59:25;;;;;;;13.25;2.25;;;16.80;99.90;;;;;;4957669;28;20142;-59
2022/10/18 11:02:17;;;;;;;18.77;2.97;;;17.00;99.90;;;;;;4957126;28;20457;-59
2022/10/18 11:04:48;;;;;;;11.43;2.08;;;17.20;99.90;;;;;;4956944;28;20051;-60
2022/10/18 11:07:37;;;;;;;10.95;2.15;;;17.40;99.90;;;;;;4956095;28;20409;-58
2022/10/18 11:10:08;;;;;;;12.77;2.13;;;17.60;99.90;;;;;;4956494;28;20121;-59
2022/10/18 11:12:46;;;;;;;19.17;2.83;;;17.60;99.90;;;;;;4955320;28;20058;-59
2022/10/18 11:15:39;;;;;;;20.08;2.53;;;17.60;99.90;;;;;;4957500;28;20047;-59
2022/10/18 11:18:33;;;;;;;11.60;2.30;;;17.50;99.90;;;;;;4958189;28;20047;-59
2022/10/18 11:21:10;;;;;;;16.20;2.30;;;17.60;99.90;;;;;;4958046;28;20066;-59
2022/10/18 11:23:41;;;;;;;18.13;2.55;;;17.80;99.90;;;;;;4957787;28;20054;-59
2022/10/18 11:26:19;;;;;;;8.00;2.25;;;18.10;99.90;;;;;;4957206;28;20054;-59
2022/10/18 11:29:03;;;;;;;8.00;2.22;;;18.40;99.90;;;;;;4960389;28;20486;-60
2022/10/18 11:32:02;;;;;;;10.32;2.83;;;18.60;99.90;;;;;;4956089;28;20489;-59
2022/10/18 11:34:30;;;;;;;9.30;1.88;;;18.80;99.90;;;;;;4956415;28;20043;-60
2022/10/18 11:37:21;;;;;;;12.82;2.05;;;19.00;99.90;;;;;;4956393;28;20484;-59
2022/10/18 11:40:23;;;;;;;15.43;2.30;;;18.90;99.90;;;;;;4957162;28;20051;-59
2022/10/18 11:43:16;;;;;;;16.58;2.13;;;18.60;99.90;;;;;;4955499;28;20134;-59
2022/10/18 11:45:54;;;;;;;13.05;2.30;;;18.30;99.90;;;;;;4958505;28;20043;-59
2022/10/18 11:48:29;;;;;;;10.70;2.17;;;18.00;99.90;;;;;;4957341;28;20082;-59
2022/10/18 11:51:04;;;;;;;13.02;1.92;;;17.80;99.90;;;;;;4957782;28;20433;-59
2022/10/18 11:53:45;;;;;;;10.82;2.60;;;17.60;99.90;;;;;;4956285;28;20055;-60
2022/10/18 11:56:37;;;;;;;12.10;2.40;;;17.50;99.90;;;;;;4956353;28;20742;-59
2022/10/18 11:59:18;;;;;;;11.45;1.80;;;17.50;99.90;;;;;;4956564;28;20106;-59
2022/10/18 12:02:23;;;;;;;12.80;2.47;;;17.70;99.90;;;;;;4957386;28;20071;-60
2022/10/18 12:04:57;;;;;;;14.85;2.03;;;17.90;99.90;;;;;;4957811;28;20493;-60
2022/10/18 12:07:25;;;;;;;12.95;2.25;;;18.20;99.90;;;;;;4957487;28;21044;-59
2022/10/18 12:09:53;;;;;;;9.75;2.20;;;18.30;99.90;;;;;;4958133;28;20061;-59
2022/10/18 12:12:28;;;;;;;12.82;2.15;;;18.50;99.90;;;;;;4956585;28;20490;-59
2022/10/18 12:14:59;;;;;;;12.07;1.90;;;18.60;99.90;;;;;;4957166;28;20050;-63
2022/10/18 12:17:31;;;;;;;11.90;2.28;;;18.60;99.90;;;;;;4953805;28;20078;-58
2022/10/18 12:20:09;;;;;;;13.65;2.25;;;18.50;99.90;;;;;;4958588;28;20512;-59
2022/10/18 12:22:44;;;;;;;11.15;1.95;;;18.40;99.90;;;;;;4955643;28;20043;-59
2022/10/18 12:25:15;;;;;;;13.63;1.90;;;18.50;99.90;;;;;;4957995;28;20157;-59
2022/10/18 12:28:12;;;;;;;10.75;2.13;;;18.50;99.90;;;;;;4957309;28;20400;-59
2022/10/18 12:31:11;;;;;;;11.85;1.85;;;18.40;99.90;;;;;;4956688;28;20062;-58
2022/10/18 12:33:40;;;;;;;10.15;1.80;;;18.20;99.90;;;;;;4957465;28;20047;-59
2022/10/18 12:36:37;;;;;;;10.75;2.00;;;18.00;99.90;;;;;;4958620;28;20061;-59
2022/10/18 12:39:11;;;;;;;11.55;2.03;;;17.90;99.90;;;;;;4957131;28;20086;-60
2022/10/18 12:41:37;;;;;;;11.93;2.08;;;18.10;99.90;;;;;;4955586;28;20093;-60
2022/10/18 12:44:33;;;;;;;14.20;2.42;;;18.40;99.90;;;;;;4957718;28;20043;-59
2022/10/18 12:47:04;;;;;;;9.52;2.30;;;18.60;99.90;;;;;;4956179;28;20046;-60
2022/10/18 12:49:38;;;;;;;15.25;2.28;;;18.90;99.90;;;;;;4961564;28;20137;-59
2022/10/18 12:52:22;;;;;;;9.60;2.30;;;19.10;99.90;;;;;;4960910;28;20047;-59
2022/10/18 12:55:17;;;;;;;14.30;2.20;;;19.40;99.90;;;;;;4962409;28;20102;-60